createdAt,value
2019-02-11T00:00:53.161Z,78.89
2019-02-11T00:01:53.170Z,78.82
2019-02-11T00:02:53.133Z,79.34
2019-02-11T00:03:59.397Z,79.34
2019-02-11T00:04:54.106Z,79.76
2019-02-11T00:05:53.100Z,80.28
2019-02-11T00:06:53.115Z,80.24
2019-02-11T00:07:53.084Z,80.38
2019-02-11T00:08:53.085Z,80.69
2019-02-11T00:09:53.053Z,81.46
2019-02-11T00:10:53.054Z,81.35
2019-02-11T00:11:53.048Z,81.77
2019-02-11T00:12:53.068Z,81.98
2019-02-11T00:13:53.041Z,81.87
2019-02-11T00:14:53.050Z,82.18
2019-02-11T00:15:53.036Z,82.08
2019-02-11T00:16:52.976Z,81.98
2019-02-11T00:17:52.963Z,82.08
2019-02-11T00:18:52.975Z,82.18
2019-02-11T00:19:52.943Z,82.39
2019-02-11T00:20:52.932Z,82.29
2019-02-11T00:21:52.947Z,82.08
2019-02-11T00:22:52.914Z,82.08
2019-02-11T00:23:52.930Z,81.98
2019-02-11T00:24:52.891Z,82.50
2019-02-11T00:25:52.876Z,82.29
2019-02-11T00:26:52.881Z,82.50
2019-02-11T00:27:52.849Z,82.18
2019-02-11T00:28:52.848Z,82.50
2019-02-11T00:29:52.839Z,81.56
2019-02-11T00:30:52.827Z,81.73
2019-02-11T00:31:52.806Z,82.18
2019-02-11T00:32:52.846Z,82.29
2019-02-11T00:33:52.794Z,81.98
2019-02-11T00:34:52.796Z,82.18
2019-02-11T00:35:52.762Z,81.67
2019-02-11T00:36:52.775Z,81.77
2019-02-11T00:37:52.765Z,81.87
2019-02-11T00:38:52.727Z,81.77
2019-02-11T00:39:52.762Z,81.67
2019-02-11T00:40:52.714Z,82.08
2019-02-11T00:41:52.715Z,82.29
2019-02-11T00:42:52.680Z,82.50
2019-02-11T00:43:52.700Z,81.67
2019-02-11T00:44:52.666Z,81.67
2019-02-11T00:45:52.673Z,82.39
2019-02-11T00:46:52.706Z,82.12
2019-02-11T00:47:52.629Z,82.29
2019-02-11T00:48:52.626Z,82.39
2019-02-11T00:49:52.611Z,82.39
2019-02-11T00:50:52.612Z,82.08
2019-02-11T00:51:52.641Z,82.50
2019-02-11T00:52:52.586Z,82.18
2019-02-11T00:53:52.558Z,82.29
2019-02-11T00:54:52.571Z,82.18
2019-02-11T00:55:52.547Z,82.18
2019-02-11T00:56:52.558Z,81.77
2019-02-11T00:57:52.517Z,82.39
2019-02-11T00:58:52.511Z,82.08
2019-02-11T00:59:52.568Z,82.18
2019-02-11T01:00:52.498Z,82.18
2019-02-11T01:01:52.497Z,82.08
2019-02-11T01:02:52.510Z,82.29
2019-02-11T01:03:52.455Z,82.29
2019-02-11T01:04:52.451Z,82.29
2019-02-11T01:05:52.426Z,82.60
2019-02-11T01:06:52.432Z,82.50
2019-02-11T01:07:52.417Z,82.81
2019-02-11T01:08:52.401Z,82.39
2019-02-11T01:09:52.383Z,82.60
2019-02-11T01:10:52.393Z,82.70
2019-02-11T01:11:52.372Z,83.22
2019-02-11T01:12:52.366Z,83.01
2019-02-11T01:13:52.344Z,83.33
2019-02-11T01:14:52.326Z,83.33
2019-02-11T01:15:52.332Z,83.53
2019-02-11T01:16:52.326Z,83.64
2019-02-11T01:17:52.292Z,83.22
2019-02-11T01:18:52.288Z,83.12
2019-02-11T01:19:52.279Z,83.33
2019-02-11T01:20:52.285Z,83.43
2019-02-11T01:21:52.292Z,83.12
2019-02-11T01:22:52.247Z,83.53
2019-02-11T01:23:52.241Z,84.47
2019-02-11T01:24:52.215Z,83.12
2019-02-11T01:25:52.286Z,83.84
2019-02-11T01:26:52.205Z,83.64
2019-02-11T01:27:52.188Z,84.16
2019-02-11T01:28:52.209Z,83.01
2019-02-11T01:29:52.184Z,83.22
2019-02-11T01:30:52.184Z,84.05
2019-02-11T01:31:52.153Z,83.95
2019-02-11T01:32:52.148Z,83.53
2019-02-11T01:33:52.119Z,84.16
2019-02-11T01:34:52.120Z,84.68
2019-02-11T01:35:52.104Z,84.89
2019-02-11T01:36:52.095Z,84.78
2019-02-11T01:37:52.071Z,85.13
2019-02-11T01:38:52.062Z,85.96
2019-02-11T01:39:52.066Z,85.10
2019-02-11T01:40:52.070Z,85.82
2019-02-11T01:41:52.066Z,84.16
2019-02-11T01:42:52.016Z,84.16
2019-02-11T01:43:52.013Z,84.41
2019-02-11T01:44:52.006Z,84.41
2019-02-11T01:45:51.987Z,84.61
2019-02-11T01:46:51.970Z,84.20
2019-02-11T01:47:51.959Z,83.99
2019-02-11T01:48:52.000Z,83.78
2019-02-11T01:49:51.940Z,83.58
2019-02-11T01:50:51.940Z,83.78
2019-02-11T01:51:51.947Z,84.41
2019-02-11T01:52:51.919Z,83.68
2019-02-11T01:53:51.905Z,84.09
2019-02-11T01:54:51.894Z,84.09
2019-02-11T01:55:51.889Z,83.68
2019-02-11T01:56:51.858Z,84.20
2019-02-11T01:57:51.860Z,84.05
2019-02-11T01:58:51.838Z,83.64
2019-02-11T01:59:51.826Z,83.43
2019-02-11T02:00:51.901Z,83.43
2019-02-11T02:01:51.813Z,83.16
2019-02-11T02:02:51.793Z,82.64
2019-02-11T02:03:51.784Z,82.84
2019-02-11T02:04:51.788Z,82.50
2019-02-11T02:05:51.783Z,82.39
2019-02-11T02:06:51.753Z,82.74
2019-02-11T02:07:51.755Z,82.74
2019-02-11T02:08:51.748Z,82.32
2019-02-11T02:09:51.738Z,82.70
2019-02-11T02:10:51.706Z,82.43
2019-02-11T02:11:51.703Z,82.01
2019-02-11T02:12:51.681Z,82.22
2019-02-11T02:13:51.671Z,82.32
2019-02-11T02:14:51.680Z,82.64
2019-02-11T02:15:51.655Z,82.84
2019-02-11T02:16:51.658Z,82.64
2019-02-11T02:17:51.649Z,82.46
2019-02-11T02:18:51.616Z,82.84
2019-02-11T02:19:51.610Z,82.74
2019-02-11T02:20:51.614Z,82.53
2019-02-11T02:21:51.586Z,82.84
2019-02-11T02:22:51.574Z,82.78
2019-02-11T02:23:51.556Z,82.43
2019-02-11T02:24:51.558Z,82.95
2019-02-11T02:25:51.538Z,82.89
2019-02-11T02:26:51.518Z,82.74
2019-02-11T02:27:51.548Z,82.95
2019-02-11T02:28:51.535Z,82.84
2019-02-11T02:29:51.514Z,82.64
2019-02-11T02:30:51.487Z,82.12
2019-02-11T02:31:51.480Z,82.01
2019-02-11T02:32:51.503Z,81.91
2019-02-11T02:33:51.455Z,81.60
2019-02-11T02:34:51.434Z,80.98
2019-02-11T02:35:51.458Z,80.46
2019-02-11T02:36:51.421Z,79.94
2019-02-11T02:37:51.404Z,79.62
2019-02-11T02:38:51.396Z,79.94
2019-02-11T02:39:51.398Z,79.62
2019-02-11T02:40:51.378Z,79.35
2019-02-11T02:41:51.352Z,79.66
2019-02-11T02:42:51.366Z,79.55
2019-02-11T02:43:55.457Z,79.35
2019-02-11T02:44:51.342Z,78.89
2019-02-11T02:45:51.332Z,78.93
2019-02-11T02:46:51.308Z,78.31
2019-02-11T02:47:51.299Z,78.00
2019-02-11T02:48:51.316Z,77.27
2019-02-11T02:49:51.280Z,77.34
2019-02-11T02:50:51.267Z,77.48
2019-02-11T02:51:51.251Z,77.89
2019-02-11T02:52:51.233Z,78.62
2019-02-11T02:53:51.228Z,79.03
2019-02-11T02:54:51.247Z,78.79
2019-02-11T02:55:51.203Z,79.14
2019-02-11T02:56:51.245Z,80.08
2019-02-11T02:57:51.181Z,80.91
2019-02-11T02:58:51.187Z,82.15
2019-02-11T02:59:51.174Z,83.65
2019-02-11T03:00:51.153Z,83.72
2019-02-11T03:01:51.145Z,84.23
2019-02-11T03:02:51.131Z,84.13
2019-02-11T03:03:51.112Z,84.59
2019-02-11T03:04:51.106Z,84.34
2019-02-11T03:05:53.053Z,84.06
2019-02-11T03:06:51.137Z,83.96
2019-02-11T03:07:51.067Z,84.27
2019-02-11T03:08:51.069Z,84.38
2019-02-11T03:09:51.060Z,83.44
2019-02-11T03:10:51.042Z,82.82
2019-02-11T03:11:51.033Z,82.71
2019-02-11T03:12:51.025Z,82.65
2019-02-11T03:13:50.999Z,82.09
2019-02-11T03:14:50.988Z,81.71
2019-02-11T03:15:51.037Z,81.60
2019-02-11T03:16:50.974Z,81.50
2019-02-11T03:17:50.961Z,80.36
2019-02-11T03:18:50.963Z,80.05
2019-02-11T03:19:50.961Z,79.59
2019-02-11T03:20:50.936Z,78.86
2019-02-11T03:21:50.937Z,78.97
2019-02-11T03:22:50.901Z,78.45
2019-02-11T03:23:50.898Z,77.93
2019-02-11T03:24:50.905Z,77.40
2019-02-11T03:25:50.906Z,77.61
2019-02-11T03:26:50.874Z,76.89
2019-02-11T03:27:50.859Z,77.51
2019-02-11T03:28:50.831Z,77.48
2019-02-11T03:29:50.824Z,77.37
2019-02-11T03:30:50.876Z,77.51
2019-02-11T03:31:50.818Z,77.51
2019-02-11T03:32:50.813Z,77.61
2019-02-11T03:33:50.793Z,77.93
2019-02-11T03:34:50.825Z,79.07
2019-02-11T03:35:50.785Z,78.86
2019-02-11T03:36:50.752Z,78.97
2019-02-11T03:37:50.762Z,79.28
2019-02-11T03:38:50.736Z,79.59
2019-02-11T03:39:50.728Z,79.69
2019-02-11T03:40:50.714Z,79.38
2019-02-11T03:41:50.685Z,80.05
2019-02-11T03:42:50.694Z,80.26
2019-02-11T03:43:50.685Z,79.94
2019-02-11T03:44:50.705Z,79.83
2019-02-11T03:45:50.672Z,79.73
2019-02-11T03:46:50.640Z,79.91
2019-02-11T03:47:50.626Z,80.26
2019-02-11T03:48:50.623Z,79.94
2019-02-11T03:49:50.598Z,80.05
2019-02-11T03:50:50.621Z,79.52
2019-02-11T03:51:50.607Z,79.94
2019-02-11T03:52:50.579Z,79.83
2019-02-11T03:53:50.582Z,79.83
2019-02-11T03:54:50.546Z,79.94
2019-02-11T03:55:50.535Z,80.05
2019-02-11T03:56:50.523Z,79.94
2019-02-11T03:57:50.519Z,79.66
2019-02-11T03:58:50.510Z,79.83
2019-02-11T03:59:50.498Z,80.15
2019-02-11T04:00:50.509Z,79.94
2019-02-11T04:01:50.468Z,80.15
2019-02-11T04:02:50.467Z,80.05
2019-02-11T04:03:50.465Z,80.26
2019-02-11T04:04:50.465Z,79.94
2019-02-11T04:05:50.417Z,80.15
2019-02-11T04:06:50.437Z,79.63
2019-02-11T04:07:50.430Z,80.15
2019-02-11T04:08:50.388Z,80.22
2019-02-11T04:09:50.390Z,79.73
2019-02-11T04:10:50.400Z,80.05
2019-02-11T04:11:50.357Z,80.01
2019-02-11T04:12:50.357Z,79.94
2019-02-11T04:13:50.337Z,80.01
2019-02-11T04:14:50.331Z,79.28
2019-02-11T04:15:50.345Z,80.11
2019-02-11T04:16:50.303Z,79.80
2019-02-11T04:17:50.292Z,79.91
2019-02-11T04:18:50.298Z,80.01
2019-02-11T04:19:50.271Z,79.80
2019-02-11T04:20:50.288Z,79.38
2019-02-11T04:21:50.242Z,80.11
2019-02-11T04:22:50.244Z,80.01
2019-02-11T04:23:50.251Z,79.59
2019-02-11T04:24:50.209Z,80.57
2019-02-11T04:25:50.204Z,80.46
2019-02-11T04:26:50.185Z,80.74
2019-02-11T04:27:50.184Z,80.53
2019-02-11T04:28:50.171Z,80.63
2019-02-11T04:29:50.157Z,80.88
2019-02-11T04:30:50.159Z,80.67
2019-02-11T04:31:50.172Z,81.09
2019-02-11T04:32:50.152Z,80.88
2019-02-11T04:33:50.133Z,81.19
2019-02-11T04:34:50.112Z,81.09
2019-02-11T04:35:50.084Z,81.40
2019-02-11T04:36:50.085Z,81.36
2019-02-11T04:37:50.066Z,81.57
2019-02-11T04:38:50.095Z,81.67
2019-02-11T04:39:50.060Z,81.77
2019-02-11T04:40:50.036Z,81.88
2019-02-11T04:41:50.021Z,81.77
2019-02-11T04:42:50.036Z,82.51
2019-02-11T04:43:50.023Z,82.30
2019-02-11T04:44:50.004Z,82.51
2019-02-11T04:45:49.982Z,82.82
2019-02-11T04:46:49.984Z,83.37
2019-02-11T04:47:50.053Z,83.48
2019-02-11T04:48:49.972Z,83.37
2019-02-11T04:49:49.945Z,84.11
2019-02-11T04:50:49.925Z,84.11
2019-02-11T04:51:49.944Z,84.52
2019-02-11T04:52:49.903Z,84.52
2019-02-11T04:53:49.901Z,85.56
2019-02-11T04:54:49.888Z,85.56
2019-02-11T04:55:49.912Z,85.56
2019-02-11T04:56:49.934Z,86.40
2019-02-11T04:57:49.864Z,87.48
2019-02-11T04:58:49.859Z,87.12
2019-02-11T04:59:49.843Z,87.23
2019-02-11T05:00:49.815Z,87.48
2019-02-11T05:01:49.839Z,87.06
2019-02-11T05:02:49.786Z,87.68
2019-02-11T05:03:49.847Z,87.79
2019-02-11T05:04:49.801Z,88.10
2019-02-11T05:05:49.778Z,88.56
2019-02-11T05:06:49.769Z,89.25
2019-02-11T05:07:49.733Z,89.76
2019-02-11T05:08:49.752Z,90.08
2019-02-11T05:09:49.744Z,90.39
2019-02-11T05:10:49.703Z,89.91
2019-02-11T05:11:49.808Z,89.87
2019-02-11T05:12:49.708Z,90.12
2019-02-11T05:13:49.690Z,90.33
2019-02-11T05:14:49.696Z,90.54
2019-02-11T05:15:49.656Z,91.37
2019-02-11T05:16:49.674Z,91.06
2019-02-11T05:17:49.655Z,91.47
2019-02-11T05:18:49.612Z,90.85
2019-02-11T05:19:49.606Z,91.58
2019-02-11T05:20:49.585Z,91.47
2019-02-11T05:21:49.575Z,91.58
2019-02-11T05:22:49.607Z,91.72
2019-02-11T05:23:49.552Z,92.77
2019-02-11T05:24:49.543Z,92.66
2019-02-11T05:25:49.529Z,92.25
2019-02-11T05:26:49.518Z,92.87
2019-02-11T05:27:49.527Z,92.97
2019-02-11T05:28:49.506Z,93.08
2019-02-11T05:29:49.515Z,93.65
2019-02-11T05:30:49.477Z,94.06
2019-02-11T05:31:49.467Z,94.02
2019-02-11T05:32:49.452Z,94.54
2019-02-11T05:33:49.459Z,94.12
2019-02-11T05:34:49.449Z,94.02
2019-02-11T05:35:49.447Z,94.12
2019-02-11T05:36:49.409Z,94.33
2019-02-11T05:37:49.401Z,94.27
2019-02-11T05:38:49.386Z,94.27
2019-02-11T05:39:49.389Z,94.17
2019-02-11T05:40:49.368Z,94.27
2019-02-11T05:41:49.360Z,94.27
2019-02-11T05:42:49.360Z,94.48
2019-02-11T05:43:49.336Z,94.37
2019-02-11T05:44:53.885Z,93.96
2019-02-11T05:45:49.312Z,94.58
2019-02-11T05:46:49.302Z,95.21
2019-02-11T05:47:49.284Z,95.42
2019-02-11T05:48:49.277Z,95.10
2019-02-11T05:49:49.307Z,95.31
2019-02-11T05:50:49.273Z,94.69
2019-02-11T05:51:49.240Z,95.31
2019-02-11T05:52:49.254Z,95.21
2019-02-11T05:53:49.221Z,95.00
2019-02-11T05:54:49.207Z,95.21
2019-02-11T05:55:49.208Z,95.10
2019-02-11T05:56:49.187Z,95.00
2019-02-11T05:57:49.174Z,95.21
2019-02-11T05:58:49.175Z,95.42
2019-02-11T05:59:49.161Z,94.27
2019-02-11T06:00:49.156Z,95.00
2019-02-11T06:01:49.131Z,94.58
2019-02-11T06:02:49.120Z,95.21
2019-02-11T06:03:49.118Z,94.48
2019-02-11T06:04:49.103Z,94.48
2019-02-11T06:05:49.101Z,95.31
2019-02-11T06:06:49.100Z,95.52
2019-02-11T06:07:49.065Z,95.21
2019-02-11T06:08:49.057Z,95.42
2019-02-11T06:09:49.904Z,95.62
2019-02-11T06:10:49.033Z,95.62
2019-02-11T06:11:49.050Z,95.42
2019-02-11T06:12:49.019Z,94.69
2019-02-11T06:13:48.996Z,95.31
2019-02-11T06:14:48.996Z,95.21
2019-02-11T06:15:48.981Z,94.79
2019-02-11T06:16:48.996Z,95.10
2019-02-11T06:17:48.956Z,95.10
2019-02-11T06:18:48.944Z,94.79
2019-02-11T06:19:48.945Z,95.21
2019-02-11T06:20:48.952Z,94.90
2019-02-11T06:21:48.951Z,95.10
2019-02-11T06:22:48.942Z,95.31
2019-02-11T06:23:48.907Z,95.31
2019-02-11T06:24:48.907Z,95.21
2019-02-11T06:25:48.893Z,95.21
2019-02-11T06:26:48.886Z,94.94
2019-02-11T06:27:48.878Z,96.15
2019-02-11T06:28:48.834Z,95.94
2019-02-11T06:29:48.842Z,95.62
2019-02-11T06:30:48.818Z,95.42
2019-02-11T06:31:48.803Z,95.98
2019-02-11T06:32:48.792Z,95.98
2019-02-11T06:33:48.787Z,95.67
2019-02-11T06:34:48.780Z,95.88
2019-02-11T06:35:48.771Z,95.88
2019-02-11T06:36:48.757Z,96.19
2019-02-11T06:37:48.740Z,96.09
2019-02-11T06:38:48.739Z,96.55
2019-02-11T06:39:48.713Z,96.23
2019-02-11T06:40:48.714Z,96.19
2019-02-11T06:41:48.688Z,96.44
2019-02-11T06:42:48.676Z,96.61
2019-02-11T06:43:48.667Z,96.66
2019-02-11T06:44:48.659Z,96.86
2019-02-11T06:45:48.651Z,96.44
2019-02-11T06:46:48.634Z,97.55
2019-02-11T06:47:48.628Z,97.38
2019-02-11T06:48:48.613Z,97.17
2019-02-11T06:49:48.621Z,97.49
2019-02-11T06:50:48.604Z,97.59
2019-02-11T06:51:48.584Z,97.17
2019-02-11T06:52:48.577Z,97.49
2019-02-11T06:53:48.584Z,97.70
2019-02-11T06:54:48.559Z,97.70
2019-02-11T06:55:48.549Z,97.43
2019-02-11T06:56:48.521Z,97.85
2019-02-11T06:57:48.512Z,97.74
2019-02-11T06:58:48.519Z,97.64
2019-02-11T06:59:48.499Z,97.74
2019-02-11T07:00:48.500Z,97.85
2019-02-11T07:01:48.521Z,97.85
2019-02-11T07:02:48.470Z,98.26
2019-02-11T07:03:48.471Z,98.16
2019-02-11T07:04:48.455Z,98.16
2019-02-11T07:05:48.426Z,97.95
2019-02-11T07:06:48.413Z,98.16
2019-02-11T07:07:48.412Z,98.26
2019-02-11T07:08:48.390Z,98.26
2019-02-11T07:09:48.420Z,98.05
2019-02-11T07:10:55.465Z,98.16
2019-02-11T07:11:49.437Z,97.95
2019-02-11T07:12:48.390Z,98.05
2019-02-11T07:13:48.351Z,98.47
2019-02-11T07:14:48.332Z,98.58
2019-02-11T07:15:48.389Z,98.79
2019-02-11T07:16:48.318Z,98.52
2019-02-11T07:17:48.298Z,99.04
2019-02-11T07:18:48.288Z,98.72
2019-02-11T07:19:48.287Z,99.31
2019-02-11T07:20:48.273Z,99.04
2019-02-11T07:21:48.271Z,99.66
2019-02-11T07:22:48.257Z,99.66
2019-02-11T07:23:48.243Z,99.88
2019-02-11T07:24:48.212Z,99.98
2019-02-11T07:25:48.202Z,99.62
2019-02-11T07:26:48.219Z,99.56
2019-02-11T07:27:48.177Z,99.46
2019-02-11T07:28:48.206Z,98.58
2019-02-11T07:29:48.177Z,99.56
2019-02-11T07:30:48.155Z,99.88
2019-02-11T07:31:48.144Z,99.77
2019-02-11T07:32:48.163Z,99.56
2019-02-11T07:33:48.131Z,99.35
2019-02-11T07:34:48.101Z,99.56
2019-02-11T07:35:48.092Z,98.83
2019-02-11T07:36:48.088Z,98.72
2019-02-11T07:37:48.098Z,99.04
2019-02-11T07:38:48.063Z,99.25
2019-02-11T07:39:48.046Z,99.77
2019-02-11T07:40:48.038Z,99.46
2019-02-11T07:41:48.023Z,99.56
2019-02-11T07:42:48.027Z,99.46
2019-02-11T07:43:48.017Z,99.66
2019-02-11T07:44:47.990Z,99.56
2019-02-11T07:45:47.982Z,99.66
2019-02-11T07:46:47.968Z,99.46
2019-02-11T07:47:47.963Z,99.56
2019-02-11T07:48:47.949Z,99.56
2019-02-11T07:49:47.940Z,99.56
2019-02-11T07:50:47.930Z,99.35
2019-02-11T07:51:47.939Z,99.46
2019-02-11T07:52:47.905Z,99.66
2019-02-11T07:53:47.896Z,99.56
2019-02-11T07:54:47.926Z,99.35
2019-02-11T07:55:47.872Z,99.25
2019-02-11T07:56:47.866Z,99.25
2019-02-11T07:57:47.850Z,98.93
2019-02-11T07:58:47.841Z,99.15
2019-02-11T07:59:47.835Z,99.66
2019-02-11T08:00:47.827Z,99.88
2019-02-11T08:01:47.824Z,99.56
2019-02-11T08:02:47.798Z,99.88
2019-02-11T08:03:47.806Z,99.35
2019-02-11T08:04:47.783Z,99.46
2019-02-11T08:05:47.764Z,99.66
2019-02-11T08:06:47.773Z,99.46
2019-02-11T08:07:47.744Z,99.88
2019-02-11T08:08:47.768Z,99.56
2019-02-11T08:09:47.716Z,99.46
2019-02-11T08:10:47.723Z,99.98
2019-02-11T08:11:47.702Z,99.15
2019-02-11T08:12:47.696Z,99.46
2019-02-11T08:13:47.676Z,99.20
2019-02-11T08:14:47.666Z,99.31
2019-02-11T08:15:47.649Z,99.10
2019-02-11T08:16:47.644Z,99.56
2019-02-11T08:17:47.628Z,99.62
2019-02-11T08:18:47.620Z,99.41
2019-02-11T08:19:47.609Z,99.62
2019-02-11T08:20:47.621Z,99.66
2019-02-11T08:21:47.584Z,99.62
2019-02-11T08:22:47.572Z,99.73
2019-02-11T08:23:47.569Z,99.41
2019-02-11T08:24:47.557Z,99.73
2019-02-11T08:25:47.595Z,98.99
2019-02-11T08:26:47.543Z,99.52
2019-02-11T08:27:47.518Z,99.31
2019-02-11T08:28:47.510Z,98.99
2019-02-11T08:29:47.509Z,99.41
2019-02-11T08:30:47.505Z,99.31
2019-02-11T08:31:47.502Z,99.10
2019-02-11T08:32:47.495Z,98.68
2019-02-11T08:33:47.495Z,98.79
2019-02-11T08:34:47.437Z,99.52
2019-02-11T08:35:47.437Z,98.79
2019-02-11T08:36:47.431Z,99.62
2019-02-11T08:37:47.409Z,98.89
2019-02-11T08:38:47.414Z,98.79
2019-02-11T08:39:47.382Z,98.26
2019-02-11T08:40:47.372Z,98.79
2019-02-11T08:41:47.365Z,98.95
2019-02-11T08:42:47.358Z,99.99
2019-02-11T08:43:47.342Z,99.16
2019-02-11T08:44:47.337Z,99.16
2019-02-11T08:45:47.437Z,98.63
2019-02-11T08:46:47.306Z,98.95
2019-02-11T08:47:47.319Z,98.53
2019-02-11T08:48:47.283Z,98.53
2019-02-11T08:49:47.271Z,98.74
2019-02-11T08:50:47.287Z,98.74
2019-02-11T08:51:47.255Z,98.74
2019-02-11T08:52:47.247Z,98.53
2019-02-11T08:53:47.236Z,98.85
2019-02-11T08:54:47.224Z,98.63
2019-02-11T08:55:47.212Z,98.28
2019-02-11T08:56:47.202Z,98.59
2019-02-11T08:57:47.183Z,98.18
2019-02-11T08:58:47.217Z,98.07
2019-02-11T08:59:47.181Z,98.07
2019-02-11T09:00:47.150Z,98.74
2019-02-11T09:01:47.155Z,97.97
2019-02-11T09:02:47.144Z,97.91
2019-02-11T09:03:47.135Z,98.18
2019-02-11T09:04:47.138Z,98.07
2019-02-11T09:05:47.127Z,97.86
2019-02-11T09:06:47.095Z,98.22
2019-02-11T09:07:47.156Z,97.80
2019-02-11T09:08:47.075Z,98.11
2019-02-11T09:09:47.069Z,98.32
2019-02-11T09:10:47.046Z,98.11
2019-02-11T09:11:47.034Z,98.01
2019-02-11T09:12:47.023Z,98.11
2019-02-11T09:13:47.022Z,98.11
2019-02-11T09:14:47.017Z,98.53
2019-02-11T09:15:55.089Z,98.01
2019-02-11T09:16:48.039Z,98.53
2019-02-11T09:17:46.966Z,98.01
2019-02-11T09:18:46.950Z,98.43
2019-02-11T09:19:46.957Z,98.26
2019-02-11T09:20:46.967Z,98.43
2019-02-11T09:21:46.918Z,98.01
2019-02-11T09:22:46.907Z,98.16
2019-02-11T09:23:46.900Z,97.80
2019-02-11T09:24:46.884Z,97.95
2019-02-11T09:25:46.878Z,98.16
2019-02-11T09:26:46.887Z,98.05
2019-02-11T09:27:46.906Z,98.58
2019-02-11T09:28:46.875Z,98.47
2019-02-11T09:29:46.840Z,98.16
2019-02-11T09:30:46.824Z,98.16
2019-02-11T09:31:46.809Z,98.47
2019-02-11T09:32:46.807Z,98.37
2019-02-11T09:33:46.782Z,98.26
2019-02-11T09:34:46.782Z,98.16
2019-02-11T09:35:46.789Z,98.16
2019-02-11T09:36:46.753Z,98.16
2019-02-11T09:37:46.742Z,98.79
2019-02-11T09:38:46.729Z,98.47
2019-02-11T09:39:46.715Z,98.79
2019-02-11T09:40:46.735Z,98.58
2019-02-11T09:41:46.723Z,98.16
2019-02-11T09:42:46.713Z,98.11
2019-02-11T09:43:46.695Z,98.37
2019-02-11T09:44:46.660Z,98.32
2019-02-11T09:45:46.649Z,98.47
2019-02-11T09:46:46.655Z,98.47
2019-02-11T09:47:46.631Z,98.47
2019-02-11T09:48:46.656Z,98.89
2019-02-11T09:49:46.637Z,97.95
2019-02-11T09:50:47.444Z,98.63
2019-02-11T09:51:46.590Z,98.74
2019-02-11T09:52:46.576Z,98.53
2019-02-11T09:53:46.578Z,99.26
2019-02-11T09:54:46.583Z,99.26
2019-02-11T09:55:46.538Z,99.05
2019-02-11T09:56:46.555Z,98.95
2019-02-11T09:57:46.552Z,99.57
2019-02-11T09:58:46.522Z,99.68
2019-02-11T09:59:46.524Z,99.57
2019-02-11T10:00:46.486Z,99.53
2019-02-11T10:01:46.552Z,98.95
2019-02-11T10:02:46.488Z,98.85
2019-02-11T10:03:46.453Z,98.80
2019-02-11T10:04:46.451Z,98.59
2019-02-11T10:05:46.442Z,98.49
2019-02-11T10:06:46.417Z,98.49
2019-02-11T10:07:46.418Z,98.43
2019-02-11T10:08:46.395Z,98.53
2019-02-11T10:09:47.912Z,97.91
2019-02-11T10:10:46.398Z,98.22
2019-02-11T10:11:46.360Z,98.22
2019-02-11T10:12:46.447Z,97.91
2019-02-11T10:13:46.343Z,98.63
2019-02-11T10:14:46.327Z,98.22
2019-02-11T10:15:46.339Z,98.22
2019-02-11T10:16:46.326Z,98.01
2019-02-11T10:17:46.294Z,98.22
2019-02-11T10:18:46.288Z,98.22
2019-02-11T10:19:46.272Z,98.01
2019-02-11T10:20:46.268Z,98.22
2019-02-11T10:21:46.253Z,98.01
2019-02-11T10:22:46.243Z,98.22
2019-02-11T10:23:46.280Z,98.11
2019-02-11T10:24:46.217Z,98.53
2019-02-11T10:25:46.208Z,98.53
2019-02-11T10:26:47.170Z,98.74
2019-02-11T10:27:46.186Z,98.32
2019-02-11T10:28:46.172Z,97.91
2019-02-11T10:29:46.176Z,98.63
2019-02-11T10:30:46.168Z,98.74
2019-02-11T10:31:46.138Z,98.63
2019-02-11T10:32:46.146Z,98.43
2019-02-11T10:33:46.119Z,98.74
2019-02-11T10:34:46.138Z,99.26
2019-02-11T10:35:46.096Z,98.95
2019-02-11T10:36:46.088Z,98.95
2019-02-11T10:37:46.074Z,99.57
2019-02-11T10:38:46.061Z,99.63
2019-02-11T10:39:46.097Z,99.47
2019-02-11T10:40:46.072Z,99.32
2019-02-11T10:41:46.027Z,99.22
2019-02-11T10:42:46.035Z,98.95
2019-02-11T10:43:46.035Z,98.74
2019-02-11T10:44:45.994Z,98.69
2019-02-11T10:45:46.008Z,98.59
2019-02-11T10:46:45.977Z,97.86
2019-02-11T10:47:45.967Z,98.28
2019-02-11T10:48:45.950Z,98.28
2019-02-11T10:49:45.977Z,97.86
2019-02-11T10:50:45.946Z,98.07
2019-02-11T10:51:45.935Z,97.75
2019-02-11T10:52:45.929Z,98.02
2019-02-11T10:53:45.912Z,97.71
2019-02-11T10:54:45.896Z,98.02
2019-02-11T10:55:45.889Z,97.61
2019-02-11T10:56:45.881Z,97.71
2019-02-11T10:57:45.875Z,97.67
2019-02-11T10:58:45.858Z,97.56
2019-02-11T10:59:45.831Z,97.40
2019-02-11T11:00:45.880Z,97.40
2019-02-11T11:01:45.819Z,97.40
2019-02-11T11:02:45.820Z,97.14
2019-02-11T11:03:45.788Z,96.21
2019-02-11T11:04:45.810Z,96.21
2019-02-11T11:05:45.769Z,96.62
2019-02-11T11:06:45.787Z,96.42
2019-02-11T11:07:45.780Z,96.21
2019-02-11T11:08:45.735Z,96.26
2019-02-11T11:09:45.730Z,96.00
2019-02-11T11:10:45.727Z,96.00
2019-02-11T11:11:45.726Z,95.85
2019-02-11T11:12:45.711Z,96.06
2019-02-11T11:13:45.688Z,96.16
2019-02-11T11:14:45.683Z,96.06
2019-02-11T11:15:45.654Z,95.43
2019-02-11T11:16:45.655Z,95.64
2019-02-11T11:17:45.637Z,96.06
2019-02-11T11:18:45.628Z,95.75
2019-02-11T11:19:45.620Z,95.64
2019-02-11T11:20:45.604Z,95.75
2019-02-11T11:21:45.598Z,95.75
2019-02-11T11:22:45.588Z,95.95
2019-02-11T11:23:45.589Z,95.95
2019-02-11T11:24:45.556Z,95.43
2019-02-11T11:25:45.588Z,95.50
2019-02-11T11:26:45.550Z,95.33
2019-02-11T11:27:45.533Z,95.23
2019-02-11T11:28:45.535Z,94.45
2019-02-11T11:29:45.514Z,95.02
2019-02-11T11:30:45.505Z,94.70
2019-02-11T11:31:45.487Z,94.70
2019-02-11T11:32:45.514Z,95.29
2019-02-11T11:33:45.462Z,95.23
2019-02-11T11:34:45.461Z,94.60
2019-02-11T11:35:45.435Z,94.76
2019-02-11T11:36:45.418Z,94.08
2019-02-11T11:37:45.429Z,95.02
2019-02-11T11:38:45.445Z,94.92
2019-02-11T11:39:45.410Z,94.49
2019-02-11T11:40:45.390Z,95.12
2019-02-11T11:41:45.406Z,94.92
2019-02-11T11:42:45.357Z,94.70
2019-02-11T11:43:45.380Z,94.92
2019-02-11T11:44:45.363Z,94.92
2019-02-11T11:45:45.337Z,95.12
2019-02-11T11:46:47.106Z,95.29
2019-02-11T11:47:45.332Z,95.50
2019-02-11T11:48:45.306Z,94.66
2019-02-11T11:49:45.299Z,94.56
2019-02-11T11:50:45.266Z,95.29
2019-02-11T11:51:45.261Z,94.60
2019-02-11T11:52:45.273Z,95.33
2019-02-11T11:53:45.247Z,94.87
2019-02-11T11:54:45.273Z,93.83
2019-02-11T11:55:45.215Z,94.04
2019-02-11T11:56:45.220Z,93.93
2019-02-11T11:57:45.199Z,93.93
2019-02-11T11:58:45.192Z,94.14
2019-02-11T11:59:45.179Z,93.93
2019-02-11T12:00:45.161Z,93.83
2019-02-11T12:01:45.207Z,94.35
2019-02-11T12:03:00.778Z,94.18
2019-02-11T12:03:46.127Z,94.08
2019-02-11T12:04:45.154Z,93.83
2019-02-11T12:05:45.157Z,94.04
2019-02-11T12:06:45.110Z,95.18
2019-02-11T12:07:45.080Z,94.92
2019-02-11T12:08:45.074Z,94.49
2019-02-11T12:09:45.110Z,93.87
2019-02-11T12:10:45.052Z,93.87
2019-02-11T12:11:45.042Z,94.08
2019-02-11T12:12:45.056Z,94.08
2019-02-11T12:13:45.036Z,94.60
2019-02-11T12:14:45.044Z,94.39
2019-02-11T12:15:45.033Z,95.23
2019-02-11T12:16:56.186Z,94.18
2019-02-11T12:17:46.091Z,94.08
2019-02-11T12:18:45.011Z,93.98
2019-02-11T12:19:45.054Z,94.49
2019-02-11T12:20:45.046Z,94.12
2019-02-11T12:21:44.957Z,94.12
2019-02-11T12:22:44.996Z,94.49
2019-02-11T12:23:44.942Z,95.02
2019-02-11T12:24:44.964Z,95.02
2019-02-11T12:25:44.876Z,94.60
2019-02-11T12:26:44.873Z,95.43
2019-02-11T12:27:44.866Z,94.81
2019-02-11T12:28:44.866Z,95.23
2019-02-11T12:29:44.872Z,94.29
2019-02-11T12:30:44.834Z,94.08
2019-02-11T12:31:44.827Z,93.91
2019-02-11T12:32:44.795Z,94.29
2019-02-11T12:33:44.790Z,93.98
2019-02-11T12:34:44.820Z,93.87
2019-02-11T12:35:44.763Z,94.08
2019-02-11T12:36:44.782Z,94.49
2019-02-11T12:37:44.738Z,95.33
2019-02-11T12:38:44.739Z,93.87
2019-02-11T12:39:44.765Z,93.77
2019-02-11T12:40:44.704Z,93.56
2019-02-11T12:41:44.707Z,94.08
2019-02-11T12:42:44.690Z,92.79
2019-02-11T12:43:44.682Z,92.99
2019-02-11T12:44:44.679Z,92.58
2019-02-11T12:45:44.663Z,92.47
2019-02-11T12:46:44.653Z,92.31
2019-02-11T12:47:44.632Z,92.16
2019-02-11T12:48:44.621Z,92.37
2019-02-11T12:49:44.616Z,92.68
2019-02-11T12:50:44.608Z,91.43
2019-02-11T12:51:44.589Z,91.64
2019-02-11T12:52:44.600Z,92.58